sensor_id;sensor_type;location;lat;lon;timestamp;temperature;humidity
16479;DHT22;8350;52.316;10.530;2023-02-01T00:00:37;5.20;1.00
16479;DHT22;8350;52.316;10.530;2023-02-01T00:03:03;5.20;1.00
16479;DHT22;8350;52.316;10.530;2023-02-01T00:05:31;5.20;1.00
16479;DHT22;8350;52.316;10.530;2023-02-01T00:07:57;5.20;1.00
16479;DHT22;8350;52.316;10.530;2023-02-01T00:10:26;5.30;1.00
16479;DHT22;8350;52.316;10.530;2023-02-01T00:12:53;5.40;1.00
16479;DHT22;8350;52.316;10.530;2023-02-01T00:15:28;5.30;1.00
16479;DHT22;8350;52.316;10.530;2023-02-01T00:17:55;5.30;1.00
16479;DHT22;8350;52.316;10.530;2023-02-01T00:20:22;5.30;1.00
16479;DHT22;8350;52.316;10.530;2023-02-01T00:22:49;5.30;1.00
16479;DHT22;8350;52.316;10.530;2023-02-01T00:25:16;5.30;1.00
16479;DHT22;8350;52.316;10.530;2023-02-01T00:27:48;5.30;1.00
16479;DHT22;8350;52.316;10.530;2023-02-01T00:30:16;5.30;1.00
16479;DHT22;8350;52.316;10.530;2023-02-01T00:32:47;5.30;1.00
16479;DHT22;8350;52.316;10.530;2023-02-01T00:35:14;5.30;1.00
16479;DHT22;8350;52.316;10.530;2023-02-01T00:37:41;5.20;1.00
16479;DHT22;8350;52.316;10.530;2023-02-01T00:40:09;5.20;1.00
16479;DHT22;8350;52.316;10.530;2023-02-01T00:42:36;5.20;1.00
16479;DHT22;8350;52.316;10.530;2023-02-01T00:45:05;5.20;1.00
16479;DHT22;8350;52.316;10.530;2023-02-01T00:47:32;5.20;1.00
16479;DHT22;8350;52.316;10.530;2023-02-01T00:49:59;5.20;1.00
16479;DHT22;8350;52.316;10.530;2023-02-01T00:52:26;5.20;1.00
16479;DHT22;8350;52.316;10.530;2023-02-01T00:54:53;5.20;1.00
16479;DHT22;8350;52.316;10.530;2023-02-01T00:57:20;5.20;1.00
16479;DHT22;8350;52.316;10.530;2023-02-01T00:59:47;5.10;1.00
16479;DHT22;8350;52.316;10.530;2023-02-01T01:02:15;5.20;1.00
16479;DHT22;8350;52.316;10.530;2023-02-01T01:04:42;5.10;1.00
16479;DHT22;8350;52.316;10.530;2023-02-01T01:07:11;5.10;1.00
16479;DHT22;8350;52.316;10.530;2023-02-01T01:09:38;5.20;1.00
16479;DHT22;8350;52.316;10.530;2023-02-01T01:12:05;5.10;1.00
16479;DHT22;8350;52.316;10.530;2023-02-01T01:14:32;5.20;1.00
16479;DHT22;8350;52.316;10.530;2023-02-01T01:16:59;5.20;1.00
16479;DHT22;8350;52.316;10.530;2023-02-01T01:19:30;5.10;1.00
16479;DHT22;8350;52.316;10.530;2023-02-01T01:21:57;5.10;1.00
16479;DHT22;8350;52.316;10.530;2023-02-01T01:24:24;5.10;1.00
16479;DHT22;8350;52.316;10.530;2023-02-01T01:26:51;5.10;1.00
16479;DHT22;8350;52.316;10.530;2023-02-01T01:29:18;5.10;1.00
16479;DHT22;8350;52.316;10.530;2023-02-01T01:31:45;5.10;1.00
16479;DHT22;8350;52.316;10.530;2023-02-01T01:34:12;5.10;1.00
16479;DHT22;8350;52.316;10.530;2023-02-01T01:36:41;5.10;1.00
16479;DHT22;8350;52.316;10.530;2023-02-01T01:39:07;5.00;1.00
16479;DHT22;8350;52.316;10.530;2023-02-01T01:41:34;5.00;1.00
16479;DHT22;8350;52.316;10.530;2023-02-01T01:44:03;5.00;1.00
16479;DHT22;8350;52.316;10.530;2023-02-01T01:46:32;5.00;1.00
16479;DHT22;8350;52.316;10.530;2023-02-01T01:49:04;5.00;1.00
16479;DHT22;8350;52.316;10.530;2023-02-01T01:51:39;5.00;1.00
16479;DHT22;8350;52.316;10.530;2023-02-01T01:54:10;5.00;1.00
16479;DHT22;8350;52.316;10.530;2023-02-01T01:56:39;5.00;1.00
16479;DHT22;8350;52.316;10.530;2023-02-01T01:59:09;5.00;1.00
16479;DHT22;8350;52.316;10.530;2023-02-01T02:01:36;5.00;1.00
16479;DHT22;8350;52.316;10.530;2023-02-01T02:04:04;5.00;1.00
16479;DHT22;8350;52.316;10.530;2023-02-01T02:06:40;5.00;1.00
16479;DHT22;8350;52.316;10.530;2023-02-01T02:09:12;5.10;1.00
16479;DHT22;8350;52.316;10.530;2023-02-01T02:11:39;5.00;1.00
16479;DHT22;8350;52.316;10.530;2023-02-01T02:14:08;5.10;1.00
16479;DHT22;8350;52.316;10.530;2023-02-01T02:16:51;5.00;1.00
16479;DHT22;8350;52.316;10.530;2023-02-01T02:22:53;4.90;1.00
16479;DHT22;8350;52.316;10.530;2023-02-01T02:25:51;4.90;1.00
16479;DHT22;8350;52.316;10.530;2023-02-01T02:28:48;4.90;1.00
16479;DHT22;8350;52.316;10.530;2023-02-01T02:31:54;4.90;1.00
16479;DHT22;8350;52.316;10.530;2023-02-01T02:34:28;4.90;1.00
16479;DHT22;8350;52.316;10.530;2023-02-01T02:37:06;4.90;1.00
16479;DHT22;8350;52.316;10.530;2023-02-01T02:39:48;4.80;1.00
16479;DHT22;8350;52.316;10.530;2023-02-01T02:42:25;4.80;1.00
16479;DHT22;8350;52.316;10.530;2023-02-01T02:45:14;4.80;1.00
16479;DHT22;8350;52.316;10.530;2023-02-01T02:48:07;4.80;1.00
16479;DHT22;8350;52.316;10.530;2023-02-01T02:50:43;4.80;1.00
16479;DHT22;8350;52.316;10.530;2023-02-01T02:53:33;4.80;1.00
16479;DHT22;8350;52.316;10.530;2023-02-01T02:56:21;4.80;1.00
16479;DHT22;8350;52.316;10.530;2023-02-01T02:59:07;4.80;1.00
16479;DHT22;8350;52.316;10.530;2023-02-01T03:01:53;4.80;1.00
16479;DHT22;8350;52.316;10.530;2023-02-01T03:04:38;4.80;1.00
16479;DHT22;8350;52.316;10.530;2023-02-01T03:07:14;4.80;1.00
16479;DHT22;8350;52.316;10.530;2023-02-01T03:09:44;4.80;1.00
16479;DHT22;8350;52.316;10.530;2023-02-01T03:12:13;4.80;1.00
16479;DHT22;8350;52.316;10.530;2023-02-01T03:15:05;4.70;1.00
16479;DHT22;8350;52.316;10.530;2023-02-01T03:17:37;4.80;1.00
16479;DHT22;8350;52.316;10.530;2023-02-01T03:20:08;4.70;1.00
16479;DHT22;8350;52.316;10.530;2023-02-01T03:22:39;4.70;1.00
16479;DHT22;8350;52.316;10.530;2023-02-01T03:25:11;4.70;1.00
16479;DHT22;8350;52.316;10.530;2023-02-01T03:27:43;4.70;1.00
16479;DHT22;8350;52.316;10.530;2023-02-01T03:30:19;4.70;1.00
16479;DHT22;8350;52.316;10.530;2023-02-01T03:32:49;4.80;1.00
16479;DHT22;8350;52.316;10.530;2023-02-01T03:35:28;4.80;1.00
16479;DHT22;8350;52.316;10.530;2023-02-01T03:38:05;4.80;1.00
16479;DHT22;8350;52.316;10.530;2023-02-01T03:40:36;4.80;1.00
16479;DHT22;8350;52.316;10.530;2023-02-01T03:43:06;4.80;1.00
16479;DHT22;8350;52.316;10.530;2023-02-01T03:45:36;4.80;1.00
16479;DHT22;8350;52.316;10.530;2023-02-01T03:48:07;4.80;1.00
16479;DHT22;8350;52.316;10.530;2023-02-01T03:50:40;4.80;1.00
16479;DHT22;8350;52.316;10.530;2023-02-01T03:53:13;4.90;1.00
16479;DHT22;8350;52.316;10.530;2023-02-01T03:55:41;4.80;1.00
16479;DHT22;8350;52.316;10.530;2023-02-01T03:58:12;4.80;1.00
16479;DHT22;8350;52.316;10.530;2023-02-01T04:00:40;4.80;1.00
16479;DHT22;8350;52.316;10.530;2023-02-01T04:03:09;4.80;1.00
16479;DHT22;8350;52.316;10.530;2023-02-01T04:05:36;4.80;1.00
16479;DHT22;8350;52.316;10.530;2023-02-01T04:08:03;4.80;1.00
16479;DHT22;8350;52.316;10.530;2023-02-01T04:10:33;4.80;1.00
16479;DHT22;8350;52.316;10.530;2023-02-01T04:12:59;4.90;1.00
16479;DHT22;8350;52.316;10.530;2023-02-01T04:15:26;4.90;1.00
16479;DHT22;8350;52.316;10.530;2023-02-01T04:17:53;4.90;1.00
16479;DHT22;8350;52.316;10.530;2023-02-01T04:20:20;4.90;1.00
16479;DHT22;8350;52.316;10.530;2023-02-01T04:22:47;4.90;15.40
16479;DHT22;8350;52.316;10.530;2023-02-01T04:25:14;4.90;21.10
16479;DHT22;8350;52.316;10.530;2023-02-01T04:27:44;4.80;27.50
16479;DHT22;8350;52.316;10.530;2023-02-01T04:30:11;4.80;26.30
16479;DHT22;8350;52.316;10.530;2023-02-01T04:32:39;4.80;23.30
16479;DHT22;8350;52.316;10.530;2023-02-01T04:35:07;4.80;20.10
16479;DHT22;8350;52.316;10.530;2023-02-01T04:37:34;4.80;25.00
16479;DHT22;8350;52.316;10.530;2023-02-01T04:40:03;4.90;27.90
16479;DHT22;8350;52.316;10.530;2023-02-01T04:42:30;4.80;25.20
16479;DHT22;8350;52.316;10.530;2023-02-01T04:44:58;4.90;19.00
16479;DHT22;8350;52.316;10.530;2023-02-01T04:47:25;4.90;12.40
16479;DHT22;8350;52.316;10.530;2023-02-01T04:49:54;4.90;11.10
16479;DHT22;8350;52.316;10.530;2023-02-01T04:52:21;4.90;20.30
16479;DHT22;8350;52.316;10.530;2023-02-01T04:54:48;4.90;25.10
16479;DHT22;8350;52.316;10.530;2023-02-01T04:57:15;4.80;31.30
16479;DHT22;8350;52.316;10.530;2023-02-01T04:59:42;4.90;34.70
16479;DHT22;8350;52.316;10.530;2023-02-01T05:02:22;4.80;36.20
16479;DHT22;8350;52.316;10.530;2023-02-01T05:04:49;4.90;29.00
16479;DHT22;8350;52.316;10.530;2023-02-01T05:07:17;4.80;25.30
16479;DHT22;8350;52.316;10.530;2023-02-01T05:09:43;4.90;40.00
16479;DHT22;8350;52.316;10.530;2023-02-01T05:12:12;4.80;90.70
16479;DHT22;8350;52.316;10.530;2023-02-01T05:14:56;4.80;99.90
16479;DHT22;8350;52.316;10.530;2023-02-01T05:17:25;4.70;99.90
16479;DHT22;8350;52.316;10.530;2023-02-01T05:19:52;4.70;99.90
16479;DHT22;8350;52.316;10.530;2023-02-01T05:22:18;4.70;99.90
16479;DHT22;8350;52.316;10.530;2023-02-01T05:24:45;4.60;99.90
16479;DHT22;8350;52.316;10.530;2023-02-01T05:27:12;4.60;98.90
16479;DHT22;8350;52.316;10.530;2023-02-01T05:29:47;4.70;91.10
16479;DHT22;8350;52.316;10.530;2023-02-01T05:32:15;4.70;91.20
16479;DHT22;8350;52.316;10.530;2023-02-01T05:34:43;4.70;92.50
16479;DHT22;8350;52.316;10.530;2023-02-01T05:37:10;4.70;99.90
16479;DHT22;8350;52.316;10.530;2023-02-01T05:39:37;4.70;99.90
16479;DHT22;8350;52.316;10.530;2023-02-01T05:42:04;4.70;99.90
16479;DHT22;8350;52.316;10.530;2023-02-01T05:44:31;4.60;99.90
16479;DHT22;8350;52.316;10.530;2023-02-01T05:46:58;4.50;99.90
16479;DHT22;8350;52.316;10.530;2023-02-01T05:49:25;4.50;99.90
16479;DHT22;8350;52.316;10.530;2023-02-01T05:51:53;4.40;99.90
16479;DHT22;8350;52.316;10.530;2023-02-01T05:54:22;4.40;99.90
16479;DHT22;8350;52.316;10.530;2023-02-01T05:56:49;4.30;99.90
16479;DHT22;8350;52.316;10.530;2023-02-01T05:59:16;4.30;99.90
16479;DHT22;8350;52.316;10.530;2023-02-01T06:01:43;4.30;99.90
16479;DHT22;8350;52.316;10.530;2023-02-01T06:04:10;4.30;99.90
16479;DHT22;8350;52.316;10.530;2023-02-01T06:06:37;4.30;99.90
16479;DHT22;8350;52.316;10.530;2023-02-01T06:09:05;4.30;99.90
16479;DHT22;8350;52.316;10.530;2023-02-01T06:11:32;4.30;99.90
16479;DHT22;8350;52.316;10.530;2023-02-01T06:13:59;4.30;99.90
16479;DHT22;8350;52.316;10.530;2023-02-01T06:16:26;4.30;99.90
16479;DHT22;8350;52.316;10.530;2023-02-01T06:18:53;4.30;99.90
16479;DHT22;8350;52.316;10.530;2023-02-01T06:21:20;4.20;99.90
16479;DHT22;8350;52.316;10.530;2023-02-01T06:23:50;4.30;99.90
16479;DHT22;8350;52.316;10.530;2023-02-01T06:26:18;4.30;99.90
16479;DHT22;8350;52.316;10.530;2023-02-01T06:28:45;4.30;99.90
16479;DHT22;8350;52.316;10.530;2023-02-01T06:31:12;4.30;99.90
16479;DHT22;8350;52.316;10.530;2023-02-01T06:33:39;4.30;99.90
16479;DHT22;8350;52.316;10.530;2023-02-01T06:36:09;4.30;99.90
16479;DHT22;8350;52.316;10.530;2023-02-01T06:38:37;4.30;99.90
16479;DHT22;8350;52.316;10.530;2023-02-01T06:41:05;4.40;99.90
16479;DHT22;8350;52.316;10.530;2023-02-01T06:43:33;4.40;99.90
16479;DHT22;8350;52.316;10.530;2023-02-01T06:46:01;4.40;99.90
16479;DHT22;8350;52.316;10.530;2023-02-01T06:48:31;4.50;99.90
16479;DHT22;8350;52.316;10.530;2023-02-01T06:50:59;4.50;99.90
16479;DHT22;8350;52.316;10.530;2023-02-01T06:53:29;4.50;99.90
16479;DHT22;8350;52.316;10.530;2023-02-01T06:55:57;4.50;99.90
16479;DHT22;8350;52.316;10.530;2023-02-01T06:58:28;4.50;99.90
16479;DHT22;8350;52.316;10.530;2023-02-01T07:00:57;4.50;99.90
16479;DHT22;8350;52.316;10.530;2023-02-01T07:03:27;4.40;99.90
16479;DHT22;8350;52.316;10.530;2023-02-01T07:05:55;4.40;99.90
16479;DHT22;8350;52.316;10.530;2023-02-01T07:08:25;4.50;99.90
16479;DHT22;8350;52.316;10.530;2023-02-01T07:10:53;4.40;99.90
16479;DHT22;8350;52.316;10.530;2023-02-01T07:13:20;4.40;99.90
16479;DHT22;8350;52.316;10.530;2023-02-01T07:15:46;4.50;99.90
16479;DHT22;8350;52.316;10.530;2023-02-01T07:18:15;4.50;99.90
16479;DHT22;8350;52.316;10.530;2023-02-01T07:20:42;4.50;99.90
16479;DHT22;8350;52.316;10.530;2023-02-01T07:23:10;4.60;99.90
16479;DHT22;8350;52.316;10.530;2023-02-01T07:25:39;4.50;99.90
16479;DHT22;8350;52.316;10.530;2023-02-01T07:28:06;4.50;99.90
16479;DHT22;8350;52.316;10.530;2023-02-01T07:30:33;4.60;99.90
16479;DHT22;8350;52.316;10.530;2023-02-01T07:33:00;4.60;99.90
16479;DHT22;8350;52.316;10.530;2023-02-01T07:35:29;4.60;99.90
16479;DHT22;8350;52.316;10.530;2023-02-01T07:37:57;4.60;99.90
16479;DHT22;8350;52.316;10.530;2023-02-01T07:40:24;4.60;99.90
16479;DHT22;8350;52.316;10.530;2023-02-01T07:42:54;4.70;99.90
16479;DHT22;8350;52.316;10.530;2023-02-01T07:45:21;4.70;99.90
16479;DHT22;8350;52.316;10.530;2023-02-01T07:47:49;4.70;99.90
16479;DHT22;8350;52.316;10.530;2023-02-01T07:50:17;4.70;99.90
16479;DHT22;8350;52.316;10.530;2023-02-01T07:52:46;4.70;99.90
16479;DHT22;8350;52.316;10.530;2023-02-01T07:55:13;4.80;99.90
16479;DHT22;8350;52.316;10.530;2023-02-01T07:57:39;4.80;99.90
16479;DHT22;8350;52.316;10.530;2023-02-01T08:00:08;4.70;99.90
16479;DHT22;8350;52.316;10.530;2023-02-01T08:02:52;4.80;99.90
16479;DHT22;8350;52.316;10.530;2023-02-01T08:05:19;4.80;99.90
16479;DHT22;8350;52.316;10.530;2023-02-01T08:07:50;4.80;99.90
16479;DHT22;8350;52.316;10.530;2023-02-01T08:10:17;4.80;99.90
16479;DHT22;8350;52.316;10.530;2023-02-01T08:12:45;4.80;99.90
16479;DHT22;8350;52.316;10.530;2023-02-01T08:15:13;4.80;99.90
16479;DHT22;8350;52.316;10.530;2023-02-01T08:17:46;4.80;99.90
16479;DHT22;8350;52.316;10.530;2023-02-01T08:20:13;4.80;99.90
16479;DHT22;8350;52.316;10.530;2023-02-01T08:22:40;4.80;99.90
16479;DHT22;8350;52.316;10.530;2023-02-01T08:25:09;4.70;99.90
16479;DHT22;8350;52.316;10.530;2023-02-01T08:27:37;4.70;99.90
16479;DHT22;8350;52.316;10.530;2023-02-01T08:30:05;4.70;99.90
16479;DHT22;8350;52.316;10.530;2023-02-01T08:32:35;4.70;99.90
16479;DHT22;8350;52.316;10.530;2023-02-01T08:35:04;4.70;99.90
16479;DHT22;8350;52.316;10.530;2023-02-01T08:37:32;4.70;99.90
16479;DHT22;8350;52.316;10.530;2023-02-01T08:39:58;4.70;99.90
16479;DHT22;8350;52.316;10.530;2023-02-01T08:42:27;4.70;99.90
16479;DHT22;8350;52.316;10.530;2023-02-01T08:45:11;4.60;99.90
16479;DHT22;8350;52.316;10.530;2023-02-01T08:47:39;4.70;99.90
16479;DHT22;8350;52.316;10.530;2023-02-01T08:50:06;4.50;99.90
16479;DHT22;8350;52.316;10.530;2023-02-01T08:52:34;4.00;99.90
16479;DHT22;8350;52.316;10.530;2023-02-01T08:55:01;3.80;99.90
16479;DHT22;8350;52.316;10.530;2023-02-01T08:57:29;3.70;99.90
16479;DHT22;8350;52.316;10.530;2023-02-01T09:00:04;3.70;99.90
16479;DHT22;8350;52.316;10.530;2023-02-01T09:02:31;3.70;99.90
16479;DHT22;8350;52.316;10.530;2023-02-01T09:04:58;3.70;99.90
16479;DHT22;8350;52.316;10.530;2023-02-01T09:07:24;3.80;99.90
16479;DHT22;8350;52.316;10.530;2023-02-01T09:09:51;3.90;99.90
16479;DHT22;8350;52.316;10.530;2023-02-01T09:12:20;4.10;99.90
16479;DHT22;8350;52.316;10.530;2023-02-01T09:14:48;4.20;99.90
16479;DHT22;8350;52.316;10.530;2023-02-01T09:17:15;4.20;99.90
16479;DHT22;8350;52.316;10.530;2023-02-01T09:19:42;4.20;99.90
16479;DHT22;8350;52.316;10.530;2023-02-01T09:22:08;4.30;99.90
16479;DHT22;8350;52.316;10.530;2023-02-01T09:24:35;4.30;99.90
16479;DHT22;8350;52.316;10.530;2023-02-01T09:27:02;4.30;99.90
16479;DHT22;8350;52.316;10.530;2023-02-01T09:29:29;4.40;99.90
16479;DHT22;8350;52.316;10.530;2023-02-01T09:32:07;4.50;99.90
16479;DHT22;8350;52.316;10.530;2023-02-01T09:34:34;4.60;99.90
16479;DHT22;8350;52.316;10.530;2023-02-01T09:37:01;4.60;99.90
16479;DHT22;8350;52.316;10.530;2023-02-01T09:39:28;4.70;99.90
16479;DHT22;8350;52.316;10.530;2023-02-01T09:42:02;4.80;99.90
16479;DHT22;8350;52.316;10.530;2023-02-01T09:44:52;4.90;99.90
16479;DHT22;8350;52.316;10.530;2023-02-01T09:47:24;5.10;99.90
16479;DHT22;8350;52.316;10.530;2023-02-01T09:49:56;5.20;99.90
16479;DHT22;8350;52.316;10.530;2023-02-01T09:52:29;5.30;99.90
16479;DHT22;8350;52.316;10.530;2023-02-01T09:55:01;5.40;99.90
16479;DHT22;8350;52.316;10.530;2023-02-01T09:57:40;5.50;99.90
16479;DHT22;8350;52.316;10.530;2023-02-01T10:00:14;5.60;99.90
16479;DHT22;8350;52.316;10.530;2023-02-01T10:02:45;5.70;99.90
16479;DHT22;8350;52.316;10.530;2023-02-01T10:05:15;5.80;99.90
16479;DHT22;8350;52.316;10.530;2023-02-01T10:07:50;5.90;52.30
16479;DHT22;8350;52.316;10.530;2023-02-01T10:10:23;5.90;50.00
16479;DHT22;8350;52.316;10.530;2023-02-01T10:13:25;6.00;21.40
16479;DHT22;8350;52.316;10.530;2023-02-01T10:16:04;6.00;47.90
16479;DHT22;8350;52.316;10.530;2023-02-01T10:21:40;6.10;1.00
16479;DHT22;8350;52.316;10.530;2023-02-01T10:24:20;6.10;8.90
16479;DHT22;8350;52.316;10.530;2023-02-01T10:26:52;6.20;1.00
16479;DHT22;8350;52.316;10.530;2023-02-01T10:29:24;6.20;1.00
16479;DHT22;8350;52.316;10.530;2023-02-01T10:31:53;6.20;1.00
16479;DHT22;8350;52.316;10.530;2023-02-01T10:34:26;6.20;1.00
16479;DHT22;8350;52.316;10.530;2023-02-01T10:36:55;6.20;1.00
16479;DHT22;8350;52.316;10.530;2023-02-01T10:39:23;6.20;1.00
16479;DHT22;8350;52.316;10.530;2023-02-01T10:41:50;6.30;1.00
16479;DHT22;8350;52.316;10.530;2023-02-01T10:44:19;6.40;1.00
16479;DHT22;8350;52.316;10.530;2023-02-01T10:46:47;6.50;1.00
16479;DHT22;8350;52.316;10.530;2023-02-01T10:49:18;6.50;1.00
16479;DHT22;8350;52.316;10.530;2023-02-01T10:51:49;6.50;1.00
16479;DHT22;8350;52.316;10.530;2023-02-01T10:54:22;6.60;1.00
16479;DHT22;8350;52.316;10.530;2023-02-01T10:56:57;6.60;1.00
16479;DHT22;8350;52.316;10.530;2023-02-01T10:59:25;6.60;1.00
16479;DHT22;8350;52.316;10.530;2023-02-01T11:01:58;6.60;1.00
16479;DHT22;8350;52.316;10.530;2023-02-01T11:04:26;6.60;1.00
16479;DHT22;8350;52.316;10.530;2023-02-01T11:07:05;6.60;1.00
16479;DHT22;8350;52.316;10.530;2023-02-01T11:09:39;6.60;1.00
16479;DHT22;8350;52.316;10.530;2023-02-01T11:12:27;6.60;1.00
16479;DHT22;8350;52.316;10.530;2023-02-01T11:14:58;6.60;1.00
16479;DHT22;8350;52.316;10.530;2023-02-01T11:17:29;6.50;1.00
16479;DHT22;8350;52.316;10.530;2023-02-01T11:20:03;6.50;1.00
16479;DHT22;8350;52.316;10.530;2023-02-01T11:22:31;6.50;1.00
16479;DHT22;8350;52.316;10.530;2023-02-01T11:24:59;6.50;1.00
16479;DHT22;8350;52.316;10.530;2023-02-01T11:27:32;6.40;1.00
16479;DHT22;8350;52.316;10.530;2023-02-01T11:30:00;6.50;1.00
16479;DHT22;8350;52.316;10.530;2023-02-01T11:32:30;6.50;1.00
16479;DHT22;8350;52.316;10.530;2023-02-01T11:35:00;6.50;1.00
16479;DHT22;8350;52.316;10.530;2023-02-01T11:37:34;6.50;1.00
16479;DHT22;8350;52.316;10.530;2023-02-01T11:40:21;6.50;1.00
16479;DHT22;8350;52.316;10.530;2023-02-01T11:42:54;6.60;1.00
16479;DHT22;8350;52.316;10.530;2023-02-01T11:45:25;6.60;1.00
16479;DHT22;8350;52.316;10.530;2023-02-01T11:47:53;6.60;1.00
16479;DHT22;8350;52.316;10.530;2023-02-01T11:50:28;6.70;1.00
16479;DHT22;8350;52.316;10.530;2023-02-01T11:53:06;6.70;1.00
16479;DHT22;8350;52.316;10.530;2023-02-01T11:55:52;6.70;1.00
16479;DHT22;8350;52.316;10.530;2023-02-01T11:58:44;6.70;1.00
16479;DHT22;8350;52.316;10.530;2023-02-01T12:01:43;6.80;1.00
16479;DHT22;8350;52.316;10.530;2023-02-01T12:04:41;6.90;1.00
16479;DHT22;8350;52.316;10.530;2023-02-01T12:07:16;6.90;1.00
16479;DHT22;8350;52.316;10.530;2023-02-01T12:10:00;7.00;1.00
16479;DHT22;8350;52.316;10.530;2023-02-01T12:12:39;7.00;1.00
16479;DHT22;8350;52.316;10.530;2023-02-01T12:15:28;7.00;1.00
16479;DHT22;8350;52.316;10.530;2023-02-01T12:18:27;7.00;1.00
16479;DHT22;8350;52.316;10.530;2023-02-01T12:21:05;7.00;1.00
16479;DHT22;8350;52.316;10.530;2023-02-01T12:23:42;7.00;1.00
16479;DHT22;8350;52.316;10.530;2023-02-01T12:26:27;7.00;1.00
16479;DHT22;8350;52.316;10.530;2023-02-01T12:29:12;7.00;1.00
16479;DHT22;8350;52.316;10.530;2023-02-01T12:31:54;7.00;1.00
16479;DHT22;8350;52.316;10.530;2023-02-01T12:34:42;7.00;1.00
16479;DHT22;8350;52.316;10.530;2023-02-01T12:37:18;6.90;1.00
16479;DHT22;8350;52.316;10.530;2023-02-01T12:39:57;6.90;1.00
16479;DHT22;8350;52.316;10.530;2023-02-01T12:42:35;6.90;1.00
16479;DHT22;8350;52.316;10.530;2023-02-01T12:45:12;6.80;1.00
16479;DHT22;8350;52.316;10.530;2023-02-01T12:47:44;6.80;1.00
16479;DHT22;8350;52.316;10.530;2023-02-01T12:50:15;6.70;1.00
16479;DHT22;8350;52.316;10.530;2023-02-01T12:52:49;6.60;1.00
16479;DHT22;8350;52.316;10.530;2023-02-01T12:55:20;6.50;1.00
16479;DHT22;8350;52.316;10.530;2023-02-01T12:57:53;6.50;1.00
16479;DHT22;8350;52.316;10.530;2023-02-01T13:00:31;6.40;1.00
16479;DHT22;8350;52.316;10.530;2023-02-01T13:03:03;6.40;1.00
16479;DHT22;8350;52.316;10.530;2023-02-01T13:05:38;6.20;1.00
16479;DHT22;8350;52.316;10.530;2023-02-01T13:08:11;6.20;1.00
16479;DHT22;8350;52.316;10.530;2023-02-01T13:10:43;6.10;6.50
16479;DHT22;8350;52.316;10.530;2023-02-01T13:13:19;5.90;23.60
16479;DHT22;8350;52.316;10.530;2023-02-01T13:15:57;5.80;36.90
16479;DHT22;8350;52.316;10.530;2023-02-01T13:18:28;5.70;61.20
16479;DHT22;8350;52.316;10.530;2023-02-01T13:21:05;5.70;80.00
16479;DHT22;8350;52.316;10.530;2023-02-01T13:23:35;5.60;99.90
16479;DHT22;8350;52.316;10.530;2023-02-01T13:26:06;5.60;99.90
16479;DHT22;8350;52.316;10.530;2023-02-01T13:28:40;5.50;99.90
16479;DHT22;8350;52.316;10.530;2023-02-01T13:31:28;5.50;99.90
16479;DHT22;8350;52.316;10.530;2023-02-01T13:34:38;5.50;99.90
16479;DHT22;8350;52.316;10.530;2023-02-01T13:37:23;5.40;99.90
16479;DHT22;8350;52.316;10.530;2023-02-01T13:40:05;5.40;99.90
16479;DHT22;8350;52.316;10.530;2023-02-01T13:42:43;5.40;99.90
16479;DHT22;8350;52.316;10.530;2023-02-01T13:45:19;5.40;99.90
16479;DHT22;8350;52.316;10.530;2023-02-01T13:47:48;5.40;99.90
16479;DHT22;8350;52.316;10.530;2023-02-01T13:50:24;5.40;99.90
16479;DHT22;8350;52.316;10.530;2023-02-01T13:52:55;5.30;99.90
16479;DHT22;8350;52.316;10.530;2023-02-01T13:55:33;5.30;99.90
16479;DHT22;8350;52.316;10.530;2023-02-01T13:58:12;5.10;99.90
16479;DHT22;8350;52.316;10.530;2023-02-01T14:00:42;5.00;99.90
16479;DHT22;8350;52.316;10.530;2023-02-01T14:03:12;4.70;99.90
16479;DHT22;8350;52.316;10.530;2023-02-01T14:09:16;4.40;99.90
16479;DHT22;8350;52.316;10.530;2023-02-01T14:11:47;4.40;99.90
16479;DHT22;8350;52.316;10.530;2023-02-01T14:14:40;4.30;99.90
16479;DHT22;8350;52.316;10.530;2023-02-01T14:17:35;4.40;99.90
16479;DHT22;8350;52.316;10.530;2023-02-01T14:23:22;4.30;99.90
16479;DHT22;8350;52.316;10.530;2023-02-01T14:26:10;4.30;99.90
16479;DHT22;8350;52.316;10.530;2023-02-01T14:28:44;4.30;99.90
16479;DHT22;8350;52.316;10.530;2023-02-01T14:31:32;4.30;99.90
16479;DHT22;8350;52.316;10.530;2023-02-01T14:34:05;4.30;99.90
16479;DHT22;8350;52.316;10.530;2023-02-01T14:36:42;4.20;99.90
16479;DHT22;8350;52.316;10.530;2023-02-01T14:39:35;4.10;99.90
16479;DHT22;8350;52.316;10.530;2023-02-01T14:42:19;4.00;99.90
16479;DHT22;8350;52.316;10.530;2023-02-01T14:44:47;3.90;99.90
16479;DHT22;8350;52.316;10.530;2023-02-01T14:47:30;3.80;99.90
16479;DHT22;8350;52.316;10.530;2023-02-01T14:50:22;3.80;99.90
16479;DHT22;8350;52.316;10.530;2023-02-01T14:53:06;3.80;99.90
16479;DHT22;8350;52.316;10.530;2023-02-01T14:55:40;3.70;99.90
16479;DHT22;8350;52.316;10.530;2023-02-01T14:58:18;3.70;99.90
16479;DHT22;8350;52.316;10.530;2023-02-01T15:00:51;3.70;99.90
16479;DHT22;8350;52.316;10.530;2023-02-01T15:03:40;3.70;99.90
16479;DHT22;8350;52.316;10.530;2023-02-01T15:06:21;3.70;99.90
16479;DHT22;8350;52.316;10.530;2023-02-01T15:08:49;3.60;99.90
16479;DHT22;8350;52.316;10.530;2023-02-01T15:11:20;3.60;99.90
16479;DHT22;8350;52.316;10.530;2023-02-01T15:13:48;3.50;99.90
16479;DHT22;8350;52.316;10.530;2023-02-01T15:16:20;3.50;99.90
16479;DHT22;8350;52.316;10.530;2023-02-01T15:18:47;3.40;99.90
16479;DHT22;8350;52.316;10.530;2023-02-01T15:21:26;3.40;99.90
16479;DHT22;8350;52.316;10.530;2023-02-01T15:24:11;3.30;99.90
16479;DHT22;8350;52.316;10.530;2023-02-01T15:26:39;3.30;99.90
16479;DHT22;8350;52.316;10.530;2023-02-01T15:29:10;3.20;99.90
16479;DHT22;8350;52.316;10.530;2023-02-01T15:31:40;3.20;99.90
16479;DHT22;8350;52.316;10.530;2023-02-01T15:34:11;3.30;99.90
16479;DHT22;8350;52.316;10.530;2023-02-01T15:36:43;3.30;99.90
16479;DHT22;8350;52.316;10.530;2023-02-01T15:39:18;3.30;99.90
16479;DHT22;8350;52.316;10.530;2023-02-01T15:41:50;3.30;99.90
16479;DHT22;8350;52.316;10.530;2023-02-01T15:44:21;3.40;99.90
16479;DHT22;8350;52.316;10.530;2023-02-01T15:46:54;3.40;99.90
16479;DHT22;8350;52.316;10.530;2023-02-01T15:49:26;3.40;99.90
16479;DHT22;8350;52.316;10.530;2023-02-01T15:51:56;3.40;99.90
16479;DHT22;8350;52.316;10.530;2023-02-01T15:54:26;3.40;99.90
16479;DHT22;8350;52.316;10.530;2023-02-01T15:56:54;3.40;99.90
16479;DHT22;8350;52.316;10.530;2023-02-01T15:59:25;3.40;99.90
16479;DHT22;8350;52.316;10.530;2023-02-01T16:01:55;3.40;99.90
16479;DHT22;8350;52.316;10.530;2023-02-01T16:04:25;3.30;99.90
16479;DHT22;8350;52.316;10.530;2023-02-01T16:06:55;3.30;99.90
16479;DHT22;8350;52.316;10.530;2023-02-01T16:09:36;3.30;99.90
16479;DHT22;8350;52.316;10.530;2023-02-01T16:12:23;3.30;99.90
16479;DHT22;8350;52.316;10.530;2023-02-01T16:15:07;3.30;99.90
16479;DHT22;8350;52.316;10.530;2023-02-01T16:17:34;3.30;99.90
16479;DHT22;8350;52.316;10.530;2023-02-01T16:20:01;3.40;99.90
16479;DHT22;8350;52.316;10.530;2023-02-01T16:22:45;3.30;99.90
16479;DHT22;8350;52.316;10.530;2023-02-01T16:25:12;3.40;99.90
16479;DHT22;8350;52.316;10.530;2023-02-01T16:27:40;3.40;99.90
16479;DHT22;8350;52.316;10.530;2023-02-01T16:30:08;3.40;99.90
16479;DHT22;8350;52.316;10.530;2023-02-01T16:32:36;3.40;99.90
16479;DHT22;8350;52.316;10.530;2023-02-01T16:35:05;3.40;99.90
16479;DHT22;8350;52.316;10.530;2023-02-01T16:37:34;3.40;99.90